Aquinnah, MA

8:11 AM EDT on March 27, 2015 (GMT -0400)
High Mark | | Change Station
CLOSE
Current Station
Personal Weather Station
Location: Chilmark, MA
Elevation: 186 ft
Nearby Weather Stations

Elev 186 ft 41.35 °N, 70.74 °W | Updated 1 second ago

Overcast
Overcast
38.4 °F
Feels Like 38 °F
N
3.0
Wind Variable Wind from North
Gusts 11.0 mph

Today
High -- | Low -- °F
--% Chance of Precip.
Yesterday
High -- | Low -- °F
Precip. -- in
6:34 AM 7:02 PM
First Quarter, 52% visible
Pressure 29.68 in
Visibility 10.0 miles
Clouds Overcast 400 ft
Windchill 38 °F
Dew Point 38 °F
Humidity 99%
Rainfall 0.09 in
Snow Depth Not available.
UV 0.0 out of 12
Pollen 2.80 out of 12
Air Quality Not available.
Flu Activity Not available.
METAR KMVY 271153Z 36011KT 10SM -RA OVC004 04/02 A2968 RMK AO2 SLP050 P0001 60005 70061 T00390017 10072 20039 53022 $

More Conditions Fewer Conditions

Pressure 29.68 in
Visibility 10.0 miles
Clouds Overcast 400 ft
Windchill 38 °F
Dew Point 38 °F
Humidity 99%
Rainfall 0.09 in
Snow Depth Not available.
UV 0.0 out of 12
Pollen 2.80 out of 12
Air Quality Not available.
Flu Activity Not available.
METAR KMVY 271153Z 36011KT 10SM -RA OVC004 04/02 A2968 RMK AO2 SLP050 P0001 60005 70061 T00390017 10072 20039 53022 $

More Conditions Fewer Conditions

10-Day Weather Forecast

Almanac

Astronomy

Mar. 27, 2015 Rise Set
Actual Time
Civil Twilight
Nautical Twilight
Astronomical Twilight
Moon
Length of Visible Light
Length of Day
Tomorrow will be .
, % of the Moon is Illuminated

Today's Extremes

State Highs State Lows

Community

WunderPhotos

Upload Photos

1,808,711 photos uploaded!

WunderBlogs® & News

Nearby

Air Quality

  Air Quality AQ Index Pollutant
Not available.

Snow Depth

Station Depth Elevation

Earthquake Activity

City Distance Mag. Time & Date
Minimum magnitude displayed is 2.5.

Coastal Water Temperatures

Place Temperature

Stations

Nearby Weather Stations

Station Location Temp. Windchill Dew Point Humidity Wind Precip. Elev Updated Type